Terminal Aerodrome Forecast
Issued by NWS

Home | Current Version | Previous Version | Graphics & Text | Print | Product List | Glossary On
Versions: 1 2 3 4 5 6 7 8 9 10 11 12
651
FTUS43 KOAX 301120
TAFCDR
TAF
KCDR 301120Z 3012/0112 31023G34KT P6SM OVC080
     FM301400 31017G28KT P6SM OVC080
     FM301700 31022G29KT P6SM OVC100
     FM010100 28007KT P6SM BKN100=

USA.gov is the U.S. government's official web portal to all federal, state and local government web resources and services.